Airport Information

KEAT - Pangborn Field Airport

KEAT 160755Z AUTO 27004KT 10SM OVC065 M03/M05 A3000 RMK AO2 SLP173 T10331050 410281044


  • General Information

  • Coordinates: N 47°23'52"/ W 120°12'21"
  • Location: N/A
  • Surveyed Elevation: 1249 MSL

Operations

Flow Name Active Runways Conditions

Green background denotes normal operations.


Common Frequencies

Callsign Frequency Position Name

More at the Document Center


Charts